Time;durP1;ratioP1;P1;durP2;ratioP2;P2;SDS_P1;SDS_P2;PMS_P1;PMS_P2;Temp;Humidity;BMP_temperature;BMP_pressure;BME280_temperature;BME280_humidity;BME280_pressure;Samples;Min_cycle;Max_cycle;Signal;HPM_P1;HPM_P2
2022/08/20 00:00:45;;;;;;;;;;;;;;;16.18;57.03;100341.09;5075552;28;1053;-56
2022/08/20 00:03:13;;;;;;;;;;;;;;;16.89;57.72;100336.31;5063142;28;1914;-56
2022/08/20 00:05:40;;;;;;;;;;;;;;;17.38;58.34;100329.84;5074794;28;1836;-56
2022/08/20 00:08:06;;;;;;;;;;;;;;;16.92;58.58;100342.03;5059884;28;930;-54
2022/08/20 00:10:32;;;;;;;;;;;;;;;16.72;58.67;100332.00;5064197;28;994;-56
2022/08/20 00:12:57;;;;;;;;;;;;;;;16.65;58.31;100334.25;5067225;28;1089;-56
2022/08/20 00:15:24;;;;;;;;;;;;;;;16.62;57.73;100340.31;5067603;28;1057;-56
2022/08/20 00:17:50;;;;;;;;;;;;;;;16.56;57.62;100342.28;5073417;28;945;-57
2022/08/20 00:20:15;;;;;;;;;;;;;;;16.52;57.49;100334.88;5070805;28;1210;-56
2022/08/20 00:22:41;;;;;;;;;;;;;;;16.50;57.47;100337.09;5070694;28;1906;-55
2022/08/20 00:25:08;;;;;;;;;;;;;;;16.47;57.07;100337.66;5063679;28;1076;-55
2022/08/20 00:27:34;;;;;;;;;;;;;;;16.42;57.21;100336.59;5075850;28;989;-55
2022/08/20 00:29:59;;;;;;;;;;;;;;;16.37;56.99;100333.88;5076099;28;1135;-55
2022/08/20 00:32:24;;;;;;;;;;;;;;;16.42;56.99;100333.00;5058296;28;946;-55
2022/08/20 00:34:50;;;;;;;;;;;;;;;16.42;57.06;100331.09;5063401;28;1036;-55
2022/08/20 00:37:15;;;;;;;;;;;;;;;16.35;57.00;100325.09;5062687;28;1773;-55
2022/08/20 00:39:41;;;;;;;;;;;;;;;16.32;57.25;100317.44;5072393;28;1032;-55
2022/08/20 00:42:06;;;;;;;;;;;;;;;16.34;56.88;100323.47;5070924;28;1005;-54
2022/08/20 00:44:32;;;;;;;;;;;;;;;16.33;57.03;100321.81;5072822;28;1987;-55
2022/08/20 00:46:57;;;;;;;;;;;;;;;16.31;57.00;100321.25;5062659;28;1100;-55
2022/08/20 00:49:24;;;;;;;;;;;;;;;16.31;56.89;100326.75;5072002;28;993;-55
2022/08/20 00:52:08;;;;;;;;;;;;;;;16.32;57.02;100313.88;5063532;28;1074;-55
2022/08/20 00:54:34;;;;;;;;;;;;;;;16.31;56.93;100318.53;5052657;28;1262;-55
2022/08/20 00:57:04;;;;;;;;;;;;;;;16.25;57.20;100308.69;5071970;28;1108;-55
2022/08/20 00:59:31;;;;;;;;;;;;;;;16.25;56.98;100303.19;5057486;28;1188;-55
2022/08/20 01:01:57;;;;;;;;;;;;;;;16.20;57.20;100301.31;5070032;28;1036;-55
2022/08/20 01:04:26;;;;;;;;;;;;;;;16.23;56.97;100289.78;5064074;28;1918;-55
2022/08/20 01:06:52;;;;;;;;;;;;;;;16.24;56.93;100296.06;5069524;28;2400;-55
2022/08/20 01:09:17;;;;;;;;;;;;;;;16.23;56.83;100294.44;5062717;28;1024;-55
2022/08/20 01:11:43;;;;;;;;;;;;;;;16.18;57.04;100291.72;5069138;28;1100;-55
2022/08/20 01:17:02;;;;;;;;;;;;;;;17.30;58.30;100294.75;5036407;28;1379;-55
2022/08/20 01:19:29;;;;;;;;;;;;;;;16.81;58.84;100288.28;5073776;28;985;-55
2022/08/20 01:21:54;;;;;;;;;;;;;;;16.71;58.49;100289.19;5049885;28;1159;-55
2022/08/20 01:24:28;;;;;;;;;;;;;;;16.65;58.14;100294.97;5075340;28;1914;-55
2022/08/20 01:26:54;;;;;;;;;;;;;;;16.57;57.65;100294.50;5057172;28;1198;-56
2022/08/20 01:29:23;;;;;;;;;;;;;;;16.60;57.46;100290.34;5043900;28;1168;-56
2022/08/20 01:31:48;;;;;;;;;;;;;;;16.48;57.45;100289.88;5043076;28;965;-56
2022/08/20 01:34:15;;;;;;;;;;;;;;;16.46;57.33;100284.69;5065036;28;885;-55
2022/08/20 01:36:43;;;;;;;;;;;;;;;16.45;57.05;100282.22;5065645;28;2367;-55
2022/08/20 01:39:09;;;;;;;;;;;;;;;16.42;57.08;100278.97;5069348;28;1124;-53
2022/08/20 01:41:47;;;;;;;;;;;;;;;16.37;57.15;100276.25;5056396;28;1048;-55
2022/08/20 01:44:12;;;;;;;;;;;;;;;16.36;56.96;100288.31;5071633;28;1981;-56
2022/08/20 01:46:39;;;;;;;;;;;;;;;16.37;57.14;100279.00;5065895;28;926;-54
2022/08/20 01:49:27;;;;;;;;;;;;;;;16.33;57.14;100277.91;5071696;28;1001;-53
2022/08/20 01:51:53;;;;;;;;;;;;;;;16.33;56.97;100286.16;5043475;28;1037;-55
2022/08/20 01:54:19;;;;;;;;;;;;;;;16.34;56.81;100287.81;5073233;28;1083;-55
2022/08/20 01:56:50;;;;;;;;;;;;;;;16.31;56.92;100284.78;5050785;28;1267;-56
2022/08/20 01:59:16;;;;;;;;;;;;;;;16.26;57.10;100288.38;5061235;28;906;-56
2022/08/20 02:01:41;;;;;;;;;;;;;;;16.32;56.67;100281.75;5063201;28;998;-56
2022/08/20 02:04:07;;;;;;;;;;;;;;;16.28;56.74;100279.88;5068812;28;1910;-56
2022/08/20 02:06:34;;;;;;;;;;;;;;;16.20;56.95;100282.13;5065347;28;2328;-56
2022/08/20 02:09:00;;;;;;;;;;;;;;;16.20;56.97;100275.78;5069845;28;1060;-56
2022/08/20 02:11:26;;;;;;;;;;;;;;;16.17;56.65;100279.94;5067022;28;1433;-55
2022/08/20 02:13:52;;;;;;;;;;;;;;;17.07;58.00;100282.63;5048232;28;1188;-56
2022/08/20 02:16:21;;;;;;;;;;;;;;;17.16;58.33;100282.78;5066802;28;1016;-56
2022/08/20 02:18:47;;;;;;;;;;;;;;;16.77;58.41;100277.06;5071995;28;1187;-56
2022/08/20 02:21:12;;;;;;;;;;;;;;;16.63;58.33;100281.53;5055827;28;1219;-56
2022/08/20 02:23:38;;;;;;;;;;;;;;;16.54;57.98;100286.03;5057853;28;1906;-56
2022/08/20 02:26:06;;;;;;;;;;;;;;;16.53;57.45;100287.13;5066761;28;1028;-56
2022/08/20 02:28:31;;;;;;;;;;;;;;;16.48;57.34;100281.66;5067638;28;1004;-55
2022/08/20 02:30:59;;;;;;;;;;;;;;;16.45;57.29;100274.81;5068021;28;1013;-56
2022/08/20 02:33:24;;;;;;;;;;;;;;;16.40;57.03;100283.91;5070576;28;1091;-55
2022/08/20 02:35:50;;;;;;;;;;;;;;;16.38;57.05;100277.91;5059917;28;1798;-56
2022/08/20 02:38:15;;;;;;;;;;;;;;;16.37;57.06;100275.44;5047586;28;1073;-56
2022/08/20 02:40:43;;;;;;;;;;;;;;;16.36;56.98;100282.84;5073036;28;977;-55
2022/08/20 02:43:08;;;;;;;;;;;;;;;16.35;56.83;100280.38;5074004;28;1905;-55
2022/08/20 02:45:36;;;;;;;;;;;;;;;16.31;56.82;100285.59;5074596;28;1052;-56
2022/08/20 02:48:01;;;;;;;;;;;;;;;16.28;56.90;100280.69;5061254;28;1151;-55
2022/08/20 02:50:27;;;;;;;;;;;;;;;16.24;56.87;100279.59;5072561;28;1032;-55
2022/08/20 02:52:52;;;;;;;;;;;;;;;16.22;56.87;100277.16;5074330;28;1084;-56
2022/08/20 02:55:17;;;;;;;;;;;;;;;16.25;56.95;100284.00;5074395;28;1338;-55
2022/08/20 02:57:43;;;;;;;;;;;;;;;16.25;56.62;100279.31;5066763;28;973;-56
2022/08/20 03:00:30;;;;;;;;;;;;;;;16.23;56.64;100287.03;5062983;28;1055;-56
2022/08/20 03:02:56;;;;;;;;;;;;;;;16.19;56.77;100288.69;5059768;28;1975;-55
2022/08/20 03:05:21;;;;;;;;;;;;;;;16.18;56.84;100291.72;5068370;28;2371;-55
2022/08/20 03:07:48;;;;;;;;;;;;;;;16.22;56.73;100287.31;5068021;28;935;-55
2022/08/20 03:10:13;;;;;;;;;;;;;;;17.36;57.82;100287.25;5058159;28;1174;-55
2022/08/20 03:12:39;;;;;;;;;;;;;;;16.95;58.67;100284.91;5055849;28;1124;-56
2022/08/20 03:15:05;;;;;;;;;;;;;;;16.65;58.42;100284.84;5068689;28;1096;-56
2022/08/20 03:17:31;;;;;;;;;;;;;;;16.60;58.24;100288.44;5074602;28;1071;-56
2022/08/20 03:19:56;;;;;;;;;;;;;;;16.54;57.85;100286.03;5058819;28;1011;-55
2022/08/20 03:22:22;;;;;;;;;;;;;;;16.51;57.63;100289.31;5066786;28;1012;-56
2022/08/20 03:24:47;;;;;;;;;;;;;;;16.44;57.50;100289.66;5063019;28;1979;-56
2022/08/20 03:27:13;;;;;;;;;;;;;;;16.40;57.36;100283.91;5056587;28;1199;-56
2022/08/20 03:29:38;;;;;;;;;;;;;;;16.36;57.24;100282.84;5070134;28;1080;-51
2022/08/20 03:32:04;;;;;;;;;;;;;;;16.35;56.98;100275.69;5070144;28;1088;-58
2022/08/20 03:34:29;;;;;;;;;;;;;;;16.31;57.09;100274.63;5075666;28;1064;-57
2022/08/20 03:36:55;;;;;;;;;;;;;;;16.35;56.81;100285.88;5041146;28;2358;-58
2022/08/20 03:39:20;;;;;;;;;;;;;;;16.29;57.02;100292.50;5077051;28;1037;-57
2022/08/20 03:41:46;;;;;;;;;;;;;;;16.31;57.56;100290.28;5064655;28;1048;-57
2022/08/20 03:44:11;;;;;;;;;;;;;;;16.30;57.31;100286.72;5069076;28;1905;-57
2022/08/20 03:46:38;;;;;;;;;;;;;;;16.30;57.23;100288.63;5070975;28;981;-56
2022/08/20 03:49:03;;;;;;;;;;;;;;;16.27;57.12;100287.28;5070648;28;1033;-56
2022/08/20 03:51:29;;;;;;;;;;;;;;;16.22;57.05;100292.81;5076988;28;1123;-55
2022/08/20 03:53:55;;;;;;;;;;;;;;;16.25;56.83;100292.22;5067039;28;973;-56
2022/08/20 03:56:20;;;;;;;;;;;;;;;16.20;57.10;100284.84;5065808;28;1178;-55
2022/08/20 03:58:45;;;;;;;;;;;;;;;17.36;58.11;100288.09;5068754;28;993;-56
2022/08/20 04:01:11;;;;;;;;;;;;;;;17.02;58.65;100288.94;5067185;28;1076;-56
2022/08/20 04:03:36;;;;;;;;;;;;;;;16.75;58.81;100295.75;5068873;28;1978;-56
2022/08/20 04:06:02;;;;;;;;;;;;;;;16.64;58.34;100307.91;5067613;28;2528;-52
2022/08/20 04:08:28;;;;;;;;;;;;;;;16.56;58.04;100308.50;5062032;28;1005;-53
2022/08/20 04:10:55;;;;;;;;;;;;;;;16.48;57.91;100300.88;5071853;28;1172;-54
2022/08/20 04:13:20;;;;;;;;;;;;;;;16.50;57.48;100304.16;5072754;28;1144;-52
2022/08/20 04:15:46;;;;;;;;;;;;;;;16.46;57.53;100300.34;5068319;28;1456;-54
2022/08/20 04:18:11;;;;;;;;;;;;;;;16.39;57.39;100303.41;5065571;28;938;-53
2022/08/20 04:20:37;;;;;;;;;;;;;;;16.40;57.07;100305.84;5067384;28;1040;-52
2022/08/20 04:23:03;;;;;;;;;;;;;;;16.36;57.11;100296.56;5064516;28;1913;-55
2022/08/20 04:25:30;;;;;;;;;;;;;;;16.38;57.03;100301.75;5062241;28;1285;-55
2022/08/20 04:27:59;;;;;;;;;;;;;;;16.37;56.84;100306.44;5060951;28;1235;-55
2022/08/20 04:30:24;;;;;;;;;;;;;;;16.30;56.92;100299.59;5060151;28;1219;-55
2022/08/20 04:32:50;;;;;;;;;;;;;;;16.25;56.99;100312.25;5061307;28;1198;-53
2022/08/20 04:35:17;;;;;;;;;;;;;;;16.28;57.10;100307.31;5043021;28;1847;-55
2022/08/20 04:37:42;;;;;;;;;;;;;;;16.29;57.00;100308.97;5065222;28;1376;-53
2022/08/20 04:42:53;;;;;;;;;;;;;;;16.22;56.91;100309.25;5060330;28;1902;-54
2022/08/20 04:45:19;;;;;;;;;;;;;;;16.21;56.94;100305.69;5060337;28;1274;-54
2022/08/20 04:47:45;;;;;;;;;;;;;;;16.20;57.06;100311.44;5063891;28;1223;-55
2022/08/20 04:50:10;;;;;;;;;;;;;;;16.21;56.68;100313.09;5059821;28;1230;-53
2022/08/20 04:52:36;;;;;;;;;;;;;;;16.16;57.00;100315.84;5058720;28;1239;-55
2022/08/20 04:55:02;;;;;;;;;;;;;;;16.21;56.67;100308.41;5060423;28;1235;-56
2022/08/20 04:57:28;;;;;;;;;;;;;;;16.17;56.90;100306.53;5064306;28;1250;-53
2022/08/20 04:59:53;;;;;;;;;;;;;;;16.15;56.99;100308.75;5060059;28;1273;-54
2022/08/20 05:02:19;;;;;;;;;;;;;;;16.17;56.85;100303.78;5062799;28;1211;-54
2022/08/20 05:04:46;;;;;;;;;;;;;;;16.89;57.92;100311.59;5059098;28;1933;-55
2022/08/20 05:07:13;;;;;;;;;;;;;;;17.21;58.26;100313.78;5060086;28;2308;-54
2022/08/20 05:09:39;;;;;;;;;;;;;;;16.80;58.59;100313.28;5061134;28;1226;-56
2022/08/20 05:12:04;;;;;;;;;;;;;;;16.72;58.28;100317.47;5057975;28;1210;-55
2022/08/20 05:14:30;;;;;;;;;;;;;;;16.61;57.95;100311.22;5057972;28;1080;-56
2022/08/20 05:16:58;;;;;;;;;;;;;;;16.56;57.84;100314.00;5060330;28;1147;-54
2022/08/20 05:19:23;;;;;;;;;;;;;;;16.52;57.56;100318.41;5059838;28;1158;-55
2022/08/20 05:21:52;;;;;;;;;;;;;;;16.46;57.70;100314.06;5059758;28;1235;-56
2022/08/20 05:24:18;;;;;;;;;;;;;;;16.47;57.26;100315.72;5042485;28;1910;-56
2022/08/20 05:26:44;;;;;;;;;;;;;;;16.42;57.56;100322.88;5056907;28;1115;-53
2022/08/20 05:29:09;;;;;;;;;;;;;;;16.43;57.17;100320.94;5062006;28;1381;-56
2022/08/20 05:31:35;;;;;;;;;;;;;;;16.43;57.45;100318.19;5041549;28;1156;-55
2022/08/20 05:34:01;;;;;;;;;;;;;;;16.40;57.37;100316.03;5059388;28;1152;-54
2022/08/20 05:36:26;;;;;;;;;;;;;;;16.38;57.43;100308.06;5062096;28;2214;-54
2022/08/20 05:38:53;;;;;;;;;;;;;;;16.41;56.94;100307.50;5059737;28;1104;-54
2022/08/20 05:41:19;;;;;;;;;;;;;;;16.36;57.33;100301.22;5061094;28;1283;-54
2022/08/20 05:43:45;;;;;;;;;;;;;;;16.35;57.40;100303.13;5067782;28;1906;-54
2022/08/20 05:46:12;;;;;;;;;;;;;;;17.31;56.87;100306.56;5057827;28;950;-56
2022/08/20 05:48:37;;;;;;;;;;;;;;;16.79;56.28;100297.91;5067214;28;911;-55
2022/08/20 05:51:03;;;;;;;;;;;;;;;16.57;54.38;100293.69;5068974;28;973;-55
2022/08/20 05:53:28;;;;;;;;;;;;;;;16.52;52.71;100293.72;5071640;28;1056;-57
2022/08/20 05:55:54;;;;;;;;;;;;;;;16.48;52.27;100289.88;5070781;28;1226;-55
2022/08/20 05:58:21;;;;;;;;;;;;;;;16.47;51.50;100289.09;5074536;28;989;-58
2022/08/20 06:00:47;;;;;;;;;;;;;;;16.43;51.17;100291.56;5061437;28;1004;-56
2022/08/20 06:05:57;;;;;;;;;;;;;;;16.43;50.29;100280.59;5061761;28;2512;-55
2022/08/20 06:08:23;;;;;;;;;;;;;;;16.37;50.04;100286.41;5067799;28;1004;-55
2022/08/20 06:10:48;;;;;;;;;;;;;;;16.46;49.93;100281.13;5069484;28;1008;-55
2022/08/20 06:13:14;;;;;;;;;;;;;;;16.45;49.81;100280.28;5060316;28;942;-54
2022/08/20 06:15:39;;;;;;;;;;;;;;;16.44;49.67;100278.69;5071877;28;1087;-56
2022/08/20 06:18:06;;;;;;;;;;;;;;;16.42;49.49;100278.97;5070796;28;1233;-54
2022/08/20 06:20:32;;;;;;;;;;;;;;;16.57;49.06;100272.53;5073214;28;1088;-56
2022/08/20 06:22:58;;;;;;;;;;;;;;;16.51;48.98;100273.69;5072777;28;1910;-53
2022/08/20 06:25:23;;;;;;;;;;;;;;;16.53;49.11;100282.44;5059191;28;844;-50
2022/08/20 06:27:48;;;;;;;;;;;;;;;16.51;49.30;100286.56;5055058;28;977;-52
2022/08/20 06:30:14;;;;;;;;;;;;;;;16.57;48.65;100277.22;5064897;28;943;-52
2022/08/20 06:32:39;;;;;;;;;;;;;;;16.50;48.91;100283.03;5069699;28;977;-52
2022/08/20 06:35:05;;;;;;;;;;;;;;;16.46;48.90;100281.13;5066227;28;1123;-52
2022/08/20 06:37:31;;;;;;;;;;;;;;;16.64;48.78;100283.19;5058854;28;2607;-53
2022/08/20 06:40:01;;;;;;;;;;;;;;;16.60;48.56;100295.84;5069298;28;1503;-54
2022/08/20 06:42:27;;;;;;;;;;;;;;;16.59;48.47;100286.81;5072207;28;1118;-54
2022/08/20 06:44:53;;;;;;;;;;;;;;;16.71;48.27;100289.19;5068662;28;1976;-56
2022/08/20 06:47:19;;;;;;;;;;;;;;;16.58;48.62;100284.34;5068123;28;957;-55
2022/08/20 06:49:44;;;;;;;;;;;;;;;16.73;48.19;100289.72;5064351;28;1104;-54
2022/08/20 06:52:10;;;;;;;;;;;;;;;16.75;48.11;100284.75;5070684;28;1032;-57
2022/08/20 06:54:35;;;;;;;;;;;;;;;16.73;48.53;100295.22;5059744;28;1190;-55
2022/08/20 06:57:01;;;;;;;;;;;;;;;16.78;48.08;100286.09;5055570;28;1195;-57
2022/08/20 06:59:26;;;;;;;;;;;;;;;16.81;48.13;100292.97;5056486;28;1093;-56
2022/08/20 07:01:55;;;;;;;;;;;;;;;16.80;48.17;100285.81;5059876;28;1104;-54
2022/08/20 07:04:22;;;;;;;;;;;;;;;16.76;48.27;100280.91;5058443;28;1909;-57
2022/08/20 07:06:50;;;;;;;;;;;;;;;16.88;48.14;100283.31;5057475;28;2283;-55
2022/08/20 07:09:15;;;;;;;;;;;;;;;16.76;48.34;100282.84;5061141;28;1140;-56
2022/08/20 07:11:41;;;;;;;;;;;;;;;16.81;48.50;100288.28;5066830;28;1307;-54
2022/08/20 07:14:06;;;;;;;;;;;;;;;16.84;48.37;100284.16;5061285;28;1056;-56
2022/08/20 07:16:31;;;;;;;;;;;;;;;16.87;48.29;100283.56;5060741;28;1084;-56
2022/08/20 07:18:57;;;;;;;;;;;;;;;16.85;48.55;100281.09;5042374;28;1267;-57
2022/08/20 07:21:23;;;;;;;;;;;;;;;16.89;48.38;100281.41;5062082;28;1372;-57
2022/08/20 07:23:48;;;;;;;;;;;;;;;16.90;48.28;100283.84;5064660;28;1963;-56
2022/08/20 07:26:14;;;;;;;;;;;;;;;16.90;48.32;100272.03;5061266;28;1175;-56
2022/08/20 07:28:39;;;;;;;;;;;;;;;16.85;48.67;100280.28;5060840;28;1228;-56
2022/08/20 07:33:48;;;;;;;;;;;;;;;16.94;48.36;100278.59;5061912;28;1181;-55
2022/08/20 07:36:14;;;;;;;;;;;;;;;16.97;48.35;100274.44;5070883;28;2518;-56
2022/08/20 07:38:39;;;;;;;;;;;;;;;16.94;48.49;100270.34;5069729;28;1139;-56
2022/08/20 07:41:09;;;;;;;;;;;;;;;16.98;48.41;100270.59;5076416;28;1143;-57
2022/08/20 07:43:34;;;;;;;;;;;;;;;17.01;48.43;100273.59;5077663;28;1910;-53
2022/08/20 07:46:00;;;;;;;;;;;;;;;16.99;48.26;100275.00;5071151;28;898;-57
2022/08/20 07:48:29;;;;;;;;;;;;;;;17.03;48.27;100267.81;5069391;28;1005;-54
2022/08/20 07:50:55;;;;;;;;;;;;;;;17.04;48.22;100267.53;5068512;28;982;-56
2022/08/20 07:53:20;;;;;;;;;;;;;;;17.05;48.23;100266.38;5073765;28;1028;-55
2022/08/20 07:55:46;;;;;;;;;;;;;;;17.06;48.00;100261.75;5075677;28;1199;-57
2022/08/20 07:58:12;;;;;;;;;;;;;;;17.04;48.09;100267.53;5076069;28;1384;-56
2022/08/20 08:00:37;;;;;;;;;;;;;;;17.06;48.07;100264.47;5074184;28;1104;-55
2022/08/20 08:03:03;;;;;;;;;;;;;;;17.05;48.08;100271.06;5065137;28;1901;-55
2022/08/20 08:05:30;;;;;;;;;;;;;;;17.17;48.13;100267.97;5066624;28;1788;-55
2022/08/20 08:07:56;;;;;;;;;;;;;;;17.13;48.08;100266.91;5041539;28;970;-55
2022/08/20 08:10:21;;;;;;;;;;;;;;;17.10;48.09;100271.84;5051021;28;1084;-56
2022/08/20 08:12:48;;;;;;;;;;;;;;;17.19;47.99;100265.72;5052914;28;1064;-55
2022/08/20 08:15:15;;;;;;;;;;;;;;;17.17;47.99;100267.97;5049552;28;1219;-56
2022/08/20 08:17:43;;;;;;;;;;;;;;;17.21;48.02;100260.78;5047718;28;1076;-57
2022/08/20 08:20:08;;;;;;;;;;;;;;;17.21;48.17;100258.03;5074146;28;1226;-56
2022/08/20 08:22:34;;;;;;;;;;;;;;;17.23;47.97;100250.31;5076715;28;985;-57
2022/08/20 08:25:01;;;;;;;;;;;;;;;17.17;48.35;100257.78;5067278;28;1909;-59
2022/08/20 08:27:31;;;;;;;;;;;;;;;17.16;48.19;100250.63;5059799;28;1270;-56
2022/08/20 08:29:58;;;;;;;;;;;;;;;17.21;48.02;100252.53;5061036;28;1168;-56
2022/08/20 08:32:23;;;;;;;;;;;;;;;17.21;48.08;100255.28;5071324;28;1277;-58
2022/08/20 08:34:49;;;;;;;;;;;;;;;17.21;48.02;100252.53;5057322;28;1361;-58
2022/08/20 08:37:14;;;;;;;;;;;;;;;17.28;47.83;100250.25;5060981;28;1745;-57
2022/08/20 08:39:39;;;;;;;;;;;;;;;17.27;47.96;100240.38;5059697;28;1195;-57
2022/08/20 08:42:14;;;;;;;;;;;;;;;17.27;47.87;100240.38;5071006;28;1199;-56
2022/08/20 08:44:40;;;;;;;;;;;;;;;17.27;48.11;100241.19;5044230;28;1971;-57
2022/08/20 08:47:12;;;;;;;;;;;;;;;17.31;48.05;100238.69;5060741;28;1202;-56
2022/08/20 08:49:37;;;;;;;;;;;;;;;17.39;47.91;100243.53;5045974;28;1298;-57
2022/08/20 08:52:23;;;;;;;;;;;;;;;17.29;48.20;100238.13;5040533;28;1030;-57
2022/08/20 08:54:50;;;;;;;;;;;;;;;17.35;48.02;100239.72;5061156;28;1191;-57
2022/08/20 08:57:15;;;;;;;;;;;;;;;17.31;47.93;100241.44;5043695;28;1200;-57
2022/08/20 08:59:41;;;;;;;;;;;;;;;17.34;47.82;100235.34;5057845;28;1287;-58
2022/08/20 09:02:06;;;;;;;;;;;;;;;17.36;47.78;100244.13;5041580;28;1276;-57
2022/08/20 09:04:33;;;;;;;;;;;;;;;17.41;48.12;100246.78;5059887;28;1897;-58
2022/08/20 09:07:00;;;;;;;;;;;;;;;17.35;48.15;100244.38;5041425;28;2524;-56
2022/08/20 09:09:26;;;;;;;;;;;;;;;17.45;47.69;100252.53;5043860;28;1208;-56
2022/08/20 09:11:53;;;;;;;;;;;;;;;17.43;48.02;100246.50;5040439;28;1227;-55
2022/08/20 09:14:19;;;;;;;;;;;;;;;17.36;48.13;100244.13;5059599;28;1208;-56
2022/08/20 09:16:45;;;;;;;;;;;;;;;17.37;47.94;100248.50;5058967;28;1251;-56
2022/08/20 09:19:10;;;;;;;;;;;;;;;17.40;47.85;100245.19;5059971;28;1275;-55
2022/08/20 09:21:35;;;;;;;;;;;;;;;17.43;47.92;100243.75;5059872;28;1218;-56
2022/08/20 09:24:01;;;;;;;;;;;;;;;17.43;47.71;100243.75;5058098;28;1906;-56
2022/08/20 09:26:27;;;;;;;;;;;;;;;17.37;48.15;100256.75;5061895;28;1266;-56
2022/08/20 09:28:52;;;;;;;;;;;;;;;17.41;47.81;100244.06;5058556;28;1237;-57
2022/08/20 09:31:17;;;;;;;;;;;;;;;17.44;48.09;100237.97;5061875;28;1100;-55
2022/08/20 09:33:43;;;;;;;;;;;;;;;17.42;48.09;100237.44;5059694;28;1123;-55
2022/08/20 09:36:08;;;;;;;;;;;;;;;17.44;48.00;100235.22;5058464;28;2153;-56
2022/08/20 09:38:34;;;;;;;;;;;;;;;17.52;47.85;100235.69;5060193;28;1350;-56
2022/08/20 09:40:59;;;;;;;;;;;;;;;17.48;47.93;100229.16;5060336;28;1052;-57
2022/08/20 09:43:25;;;;;;;;;;;;;;;17.44;48.04;100237.97;5060243;28;1902;-56
2022/08/20 09:45:50;;;;;;;;;;;;;;;17.40;47.96;100231.44;5058930;28;1297;-56
2022/08/20 09:48:16;;;;;;;;;;;;;;;15.11;54.12;100227.94;5059121;28;1212;-57
2022/08/20 09:50:43;;;;;;;;;;;;;;;16.27;50.76;100218.72;5059257;28;1184;-55
2022/08/20 09:53:08;;;;;;;;;;;;;;;16.87;48.87;100232.22;5039414;28;1174;-55
2022/08/20 09:55:35;;;;;;;;;;;;;;;17.06;48.74;100226.03;5038427;28;1644;-56
2022/08/20 09:58:16;;;;;;;;;;;;;;;17.19;48.33;100210.78;5061075;28;1191;-54
2022/08/20 10:00:42;;;;;;;;;;;;;;;17.22;48.30;100215.69;5040446;28;1193;-56
2022/08/20 10:03:07;;;;;;;;;;;;;;;17.31;48.05;100210.38;5059720;28;1995;-57
2022/08/20 10:05:33;;;;;;;;;;;;;;;17.18;48.40;100214.63;5058360;28;1797;-56
2022/08/20 10:07:58;;;;;;;;;;;;;;;17.30;48.18;100208.75;5059977;28;1056;-55
2022/08/20 10:10:24;;;;;;;;;;;;;;;17.28;48.27;100215.34;5060558;28;1215;-57
2022/08/20 10:12:49;;;;;;;;;;;;;;;17.19;48.38;100208.03;5060226;28;1291;-56
2022/08/20 10:15:14;;;;;;;;;;;;;;;17.36;47.88;100211.16;5056051;28;1132;-56
2022/08/20 10:17:40;;;;;;;;;;;;;;;15.76;51.56;100206.06;5059199;28;1238;-57
2022/08/20 10:20:07;;;;;;;;;;;;;;;15.69;52.15;100209.13;5058448;28;1207;-56
2022/08/20 10:22:33;;;;;;;;;;;;;;;16.77;49.17;100211.16;5062441;28;1113;-57
2022/08/20 10:24:58;;;;;;;;;;;;;;;16.83;48.96;100208.34;5057703;28;1909;-55
2022/08/20 10:27:23;;;;;;;;;;;;;;;16.99;48.27;100207.13;5057975;28;1191;-55
2022/08/20 10:29:49;;;;;;;;;;;;;;;17.05;48.26;100205.16;5059652;28;1250;-55
2022/08/20 10:32:14;;;;;;;;;;;;;;;17.13;48.29;100193.53;5059945;28;1222;-57
2022/08/20 10:34:41;;;;;;;;;;;;;;;17.22;48.18;100204.69;5058418;28;1187;-57
2022/08/20 10:37:06;;;;;;;;;;;;;;;17.26;48.15;100211.25;5055689;28;1800;-56
2022/08/20 10:39:32;;;;;;;;;;;;;;;17.26;48.35;100201.09;5058074;28;1259;-57
2022/08/20 10:41:57;;;;;;;;;;;;;;;17.23;48.18;100211.84;5057464;28;1148;-57
2022/08/20 10:44:22;;;;;;;;;;;;;;;17.27;48.22;100212.88;5060409;28;1910;-56
2022/08/20 10:46:48;;;;;;;;;;;;;;;17.36;48.10;100221.31;5057537;28;1247;-56
2022/08/20 10:49:13;;;;;;;;;;;;;;;17.29;48.08;100216.16;5058394;28;1068;-58
2022/08/20 10:51:39;;;;;;;;;;;;;;;17.29;48.07;100216.16;5059806;28;1238;-57
2022/08/20 10:54:04;;;;;;;;;;;;;;;17.32;48.17;100209.25;5057767;28;1037;-58
2022/08/20 10:56:30;;;;;;;;;;;;;;;17.44;47.89;100207.72;5054675;28;1061;-56
2022/08/20 10:58:55;;;;;;;;;;;;;;;17.47;47.88;100211.03;5059659;28;1073;-56
2022/08/20 11:01:21;;;;;;;;;;;;;;;14.30;56.25;100216.75;5057580;28;1088;-57
2022/08/20 11:03:46;;;;;;;;;;;;;;;16.48;49.85;100208.41;5062281;28;1978;-56
2022/08/20 11:06:12;;;;;;;;;;;;;;;16.85;48.74;100206.16;5057936;28;2211;-55
2022/08/20 11:08:37;;;;;;;;;;;;;;;16.89;48.58;100202.56;5056557;28;1052;-58
2022/08/20 11:11:03;;;;;;;;;;;;;;;17.02;48.45;100205.75;5058116;28;1273;-56
2022/08/20 11:13:29;;;;;;;;;;;;;;;16.55;49.34;100203.41;5061036;28;1278;-55
2022/08/20 11:15:54;;;;;;;;;;;;;;;14.93;53.87;100196.47;5058206;28;1207;-56
2022/08/20 11:18:20;;;;;;;;;;;;;;;16.42;49.41;100199.38;5058191;28;1203;-56
2022/08/20 11:20:45;;;;;;;;;;;;;;;16.72;48.57;100186.50;5057348;28;1321;-57
2022/08/20 11:23:10;;;;;;;;;;;;;;;16.73;48.67;100182.66;5059442;28;1913;-57
2022/08/20 11:25:36;;;;;;;;;;;;;;;16.85;48.50;100184.19;5055982;28;1238;-58
2022/08/20 11:28:02;;;;;;;;;;;;;;;16.95;48.36;100186.84;5056168;28;1202;-57
2022/08/20 11:30:28;;;;;;;;;;;;;;;16.96;48.36;100187.66;5057931;28;1203;-58
2022/08/20 11:32:54;;;;;;;;;;;;;;;17.01;48.36;100182.97;5058395;28;1348;-56
2022/08/20 11:35:22;;;;;;;;;;;;;;;17.16;47.88;100186.66;5057687;28;1769;-57
2022/08/20 11:37:47;;;;;;;;;;;;;;;17.13;48.31;100179.78;5061654;28;1247;-57
2022/08/20 11:40:13;;;;;;;;;;;;;;;17.23;47.88;100173.38;5066439;28;1203;-56
2022/08/20 11:42:38;;;;;;;;;;;;;;;17.16;48.01;100181.16;5067438;28;1025;-56
2022/08/20 11:45:04;;;;;;;;;;;;;;;17.21;47.98;100183.84;5072986;28;1979;-56
2022/08/20 11:47:32;;;;;;;;;;;;;;;17.20;47.82;100179.47;5072527;28;1127;-56
2022/08/20 11:50:02;;;;;;;;;;;;;;;17.24;47.97;100175.00;5058260;28;1061;-59
2022/08/20 11:52:28;;;;;;;;;;;;;;;17.22;47.95;100166.22;5063049;28;1009;-56
2022/08/20 11:54:54;;;;;;;;;;;;;;;17.23;47.94;100167.88;5067308;28;1139;-56
2022/08/20 11:57:22;;;;;;;;;;;;;;;17.27;47.86;100164.25;5062389;28;1009;-58
2022/08/20 11:59:49;;;;;;;;;;;;;;;17.29;47.97;100158.44;5060073;28;1190;-58
2022/08/20 12:02:14;;;;;;;;;;;;;;;17.26;48.01;100161.78;5059310;28;1274;-57
2022/08/20 12:04:40;;;;;;;;;;;;;;;17.34;48.01;100163.88;5060680;28;1972;-57
2022/08/20 12:07:13;;;;;;;;;;;;;;;17.35;47.99;100157.28;5059735;28;1745;-58
2022/08/20 12:09:38;;;;;;;;;;;;;;;17.36;48.00;100153.44;5059288;28;1147;-57
2022/08/20 12:12:04;;;;;;;;;;;;;;;17.33;48.08;100164.19;5060184;28;1144;-58
2022/08/20 12:14:29;;;;;;;;;;;;;;;14.55;55.77;100158.47;5059993;28;1124;-57
2022/08/20 12:16:55;;;;;;;;;;;;;;;16.58;49.59;100160.84;5060793;28;1246;-57
2022/08/20 12:19:20;;;;;;;;;;;;;;;16.96;48.28;100162.94;5057541;28;1037;-57
2022/08/20 12:21:46;;;;;;;;;;;;;;;16.94;48.50;100160.50;5060996;28;1093;-57
2022/08/20 12:24:11;;;;;;;;;;;;;;;17.06;48.33;100160.09;5059471;28;1978;-57
2022/08/20 12:26:37;;;;;;;;;;;;;;;17.11;48.13;100160.06;5063509;28;1115;-58
2022/08/20 12:29:02;;;;;;;;;;;;;;;17.13;48.32;100162.50;5075208;28;1032;-58
2022/08/20 12:31:28;;;;;;;;;;;;;;;17.18;48.11;100160.53;5075346;28;1112;-56
2022/08/20 12:33:53;;;;;;;;;;;;;;;17.24;47.95;100153.03;5077083;28;1370;-57
2022/08/20 12:36:19;;;;;;;;;;;;;;;17.24;48.28;100156.59;5067232;28;1813;-58
2022/08/20 12:38:44;;;;;;;;;;;;;;;17.06;48.67;100158.16;5068921;28;965;-57
2022/08/20 12:41:09;;;;;;;;;;;;;;;14.81;54.90;100155.72;5066172;28;1001;-55
2022/08/20 12:43:35;;;;;;;;;;;;;;;16.51;49.78;100160.31;5067057;28;1937;-57
2022/08/20 12:46:00;;;;;;;;;;;;;;;16.75;48.85;100161.19;5074950;28;1124;-57
2022/08/20 12:48:26;;;;;;;;;;;;;;;16.95;48.71;100148.41;5065458;28;1024;-57
2022/08/20 12:50:51;;;;;;;;;;;;;;;17.04;48.40;100152.16;5069432;28;1032;-57
2022/08/20 12:53:17;;;;;;;;;;;;;;;17.03;48.52;100152.44;5066232;28;1119;-57